Time;durP1;ratioP1;P1;durP2;ratioP2;P2;SDS_P1;SDS_P2;PMS_P1;PMS_P2;Temp;Humidity;BMP_temperature;BMP_pressure;BME280_temperature;BME280_humidity;BME280_pressure;Samples;Min_cycle;Max_cycle;Signal;HPM_P1;HPM_P2
2021/10/21 00:00:29;;;;;;;19.20;11.18;;;;;;;6.61;94.24;98221.78;5081650;28;20063;-59
2021/10/21 00:03:15;;;;;;;17.73;11.60;;;;;;;6.61;94.85;98215.78;5081783;28;20380;-60
2021/10/21 00:06:02;;;;;;;19.73;13.20;;;;;;;6.73;94.78;98180.25;5065275;28;20026;-61
2021/10/21 00:08:48;;;;;;;18.25;12.77;;;;;;;6.73;94.91;98164.00;5066186;28;20039;-60
2021/10/21 00:11:35;;;;;;;18.58;11.38;;;;;;;6.80;95.26;98180.91;5081400;28;20039;-60
2021/10/21 00:14:20;;;;;;;18.33;12.27;;;;;;;6.81;95.04;98148.31;5079691;28;20241;-61
2021/10/21 00:17:07;;;;;;;21.23;13.15;;;;;;;6.89;94.74;98138.63;5078932;28;20024;-59
2021/10/21 00:19:53;;;;;;;18.67;12.80;;;;;;;6.91;95.33;98116.25;5076905;28;20019;-60
2021/10/21 00:22:39;;;;;;;20.65;13.25;;;;;;;6.91;95.74;98100.78;5081785;28;20270;-60
2021/10/21 00:25:25;;;;;;;20.27;12.75;;;;;;;6.97;95.28;98123.78;5080738;28;20103;-61
2021/10/21 00:28:12;;;;;;;23.15;14.20;;;;;;;7.02;95.56;98131.34;5081663;28;20020;-61
2021/10/21 00:30:58;;;;;;;22.13;14.60;;;;;;;7.02;95.68;98127.03;5078891;28;20333;-61
2021/10/21 00:33:44;;;;;;;22.15;13.88;;;;;;;7.07;95.44;98143.19;5083606;28;20079;-61
2021/10/21 00:36:31;;;;;;;20.75;13.55;;;;;;;7.08;95.93;98124.28;5082735;28;20024;-61
2021/10/21 00:39:17;;;;;;;21.20;14.43;;;;;;;7.21;95.94;98152.16;5081897;28;20091;-61
2021/10/21 00:42:03;;;;;;;23.20;13.57;;;;;;;7.17;95.75;98128.28;5080030;28;20024;-62
2021/10/21 00:44:49;;;;;;;19.00;13.52;;;;;;;7.21;95.70;98131.56;5081990;28;20070;-60
2021/10/21 00:47:35;;;;;;;23.15;14.27;;;;;;;7.25;95.66;98120.28;5083261;28;20047;-60
2021/10/21 00:50:21;;;;;;;26.80;13.20;;;;;;;7.25;96.01;98117.72;5080400;28;20389;-61
2021/10/21 00:53:10;;;;;;;19.35;12.98;;;;;;;6.95;96.41;98050.91;5086697;28;20032;-60
2021/10/21 00:55:55;;;;;;;22.10;14.27;;;;;;;7.32;96.02;98108.88;5086809;28;20036;-60
2021/10/21 00:58:42;;;;;;;21.55;14.30;;;;;;;7.38;96.42;98079.50;5068983;28;20045;-60
2021/10/21 01:01:32;;;;;;;21.63;14.07;;;;;;;7.44;96.92;98084.47;5074170;28;20031;-60
2021/10/21 01:04:18;;;;;;;24.23;14.75;;;;;;;7.46;96.27;98081.84;5068030;28;20038;-59
2021/10/21 01:07:04;;;;;;;22.80;14.63;;;;;;;7.50;96.23;98071.38;5077400;28;20246;-60
2021/10/21 01:09:50;;;;;;;23.77;14.00;;;;;;;7.54;96.59;98057.47;5081261;28;20028;-60
2021/10/21 01:12:36;;;;;;;20.38;13.43;;;;;;;7.62;95.89;98056.38;5081430;28;20347;-60
2021/10/21 01:15:26;;;;;;;28.33;15.32;;;;;;;7.42;95.88;98027.88;5077173;28;20050;-59
2021/10/21 01:18:12;;;;;;;23.00;14.65;;;;;;;7.69;95.90;98040.63;5081245;28;20039;-61
2021/10/21 01:20:59;;;;;;;21.38;13.55;;;;;;;7.73;95.40;98044.78;5081352;28;20021;-60
2021/10/21 01:23:45;;;;;;;24.27;14.75;;;;;;;7.77;96.06;98050.66;5073649;28;20033;-60
2021/10/21 01:26:31;;;;;;;21.00;14.52;;;;;;;7.76;95.45;98062.69;5080873;28;20042;-59
2021/10/21 01:29:19;;;;;;;22.35;13.38;;;;;;;7.46;95.52;98004.56;5081237;28;20108;-60
2021/10/21 01:32:05;;;;;;;21.00;13.95;;;;;;;7.85;95.58;98046.06;5078616;28;20413;-59
2021/10/21 01:34:52;;;;;;;23.35;14.55;;;;;;;7.81;96.28;98034.19;5078604;28;20036;-60
2021/10/21 01:37:38;;;;;;;23.50;14.95;;;;;;;7.88;95.51;98056.28;5082025;28;20040;-60
2021/10/21 01:40:24;;;;;;;21.40;13.60;;;;;;;7.93;96.42;98063.81;5052608;28;20088;-60
2021/10/21 01:43:13;;;;;;;22.65;14.57;;;;;;;7.98;95.28;98045.59;5083366;28;20210;-60
2021/10/21 01:45:58;;;;;;;23.25;13.77;;;;;;;8.05;95.11;98044.47;5083726;28;20419;-60
2021/10/21 01:48:44;;;;;;;19.35;14.45;;;;;;;8.11;94.93;98039.09;5067366;28;20021;-60
2021/10/21 01:51:31;;;;;;;23.67;15.10;;;;;;;8.11;95.32;98027.03;5082859;28;20024;-61
2021/10/21 01:54:17;;;;;;;19.27;13.40;;;;;;;8.13;95.50;98035.53;5081817;28;20017;-61
2021/10/21 01:57:03;;;;;;;21.02;14.40;;;;;;;8.19;95.61;98039.63;5066280;28;20023;-61
2021/10/21 01:59:49;;;;;;;22.15;14.80;;;;;;;8.21;95.60;98047.28;5083031;28;20024;-61
2021/10/21 02:02:35;;;;;;;22.33;14.00;;;;;;;8.32;94.77;98031.41;5085025;28;20027;-60
2021/10/21 02:05:23;;;;;;;22.55;14.45;;;;;;;8.28;95.05;97998.00;5085620;28;20210;-60
2021/10/21 02:08:09;;;;;;;19.92;14.20;;;;;;;8.33;94.66;97990.09;5084902;28;20027;-60
2021/10/21 02:10:55;;;;;;;19.85;13.98;;;;;;;8.39;95.72;98018.22;5085316;28;20032;-60
2021/10/21 02:13:41;;;;;;;21.23;14.40;;;;;;;8.34;95.82;98006.41;5083996;28;21137;-60
2021/10/21 02:16:27;;;;;;;19.25;13.45;;;;;;;8.39;95.27;98009.63;5088838;28;20199;-61
2021/10/21 02:19:13;;;;;;;21.52;12.90;;;;;;;8.50;94.95;98011.84;5086566;28;20024;-62
2021/10/21 02:21:59;;;;;;;19.70;13.80;;;;;;;8.51;95.98;98018.66;5076808;28;20021;-62
2021/10/21 02:24:45;;;;;;;20.90;14.15;;;;;;;8.52;95.74;98007.44;5066713;28;20020;-62
2021/10/21 02:27:31;;;;;;;23.38;14.48;;;;;;;8.52;95.41;98012.59;5071467;28;20055;-62
2021/10/21 02:30:20;;;;;;;18.92;13.50;;;;;;;8.54;95.37;98000.50;5079067;28;20631;-62
2021/10/21 02:33:06;;;;;;;23.50;14.55;;;;;;;8.59;96.37;98003.72;5059834;28;20367;-60
2021/10/21 02:35:52;;;;;;;26.05;15.23;;;;;;;8.61;95.20;97989.03;5082362;28;20036;-59
2021/10/21 02:38:38;;;;;;;20.38;13.60;;;;;;;8.60;96.43;97995.91;5083523;28;20059;-61
2021/10/21 02:41:24;;;;;;;20.40;14.07;;;;;;;8.71;96.07;97979.16;5080975;28;20525;-60
2021/10/21 02:44:10;;;;;;;18.85;13.65;;;;;;;8.72;95.99;97984.25;5082920;28;20027;-61
2021/10/21 02:46:56;;;;;;;24.77;16.52;;;;;;;8.75;95.75;97988.44;5082643;28;20031;-61
2021/10/21 02:49:42;;;;;;;19.98;14.45;;;;;;;8.79;95.89;97983.09;5069317;28;20349;-61
2021/10/21 02:52:28;;;;;;;23.98;15.77;;;;;;;8.85;95.07;97979.41;5072812;28;20020;-61
2021/10/21 02:55:14;;;;;;;25.63;17.45;;;;;;;8.88;94.90;97968.09;5058476;28;20031;-61
2021/10/21 02:58:00;;;;;;;21.88;15.00;;;;;;;8.87;96.37;97958.69;5073300;28;20262;-61
2021/10/21 03:00:46;;;;;;;25.23;15.38;;;;;;;8.95;95.77;97957.47;5076721;28;20025;-61
2021/10/21 03:03:32;;;;;;;23.27;15.95;;;;;;;8.91;95.69;97949.94;5082515;28;20032;-60
2021/10/21 03:06:18;;;;;;;24.30;17.77;;;;;;;9.00;95.28;97959.00;5083265;28;20025;-60
2021/10/21 03:09:04;;;;;;;28.27;16.67;;;;;;;8.93;96.57;97964.41;5066492;28;20096;-60
2021/10/21 03:11:50;;;;;;;26.52;18.08;;;;;;;9.00;95.21;97959.84;5082685;28;20090;-62
2021/10/21 03:14:36;;;;;;;25.63;17.95;;;;;;;9.03;95.33;97951.13;5083896;28;20044;-61
2021/10/21 03:17:21;;;;;;;28.95;18.58;;;;;;;9.05;95.53;97946.72;5081069;28;20032;-61
2021/10/21 03:20:12;;;;;;;28.83;18.75;;;;;;;9.09;96.51;97938.81;5082044;28;20100;-61
2021/10/21 03:22:58;;;;;;;28.90;18.67;;;;;;;9.12;95.45;97937.81;5081421;28;20179;-61
2021/10/21 03:25:44;;;;;;;27.13;19.02;;;;;;;9.18;95.36;97922.06;5064785;28;20119;-62
2021/10/21 03:28:30;;;;;;;27.55;18.42;;;;;;;9.15;95.39;97911.88;5080021;28;20032;-61
2021/10/21 03:31:16;;;;;;;31.13;19.83;;;;;;;9.24;96.21;97926.09;5080467;28;20025;-61
2021/10/21 03:34:02;;;;;;;30.02;19.48;;;;;;;9.28;96.18;97912.16;5079751;28;20025;-61
2021/10/21 03:36:48;;;;;;;29.33;19.45;;;;;;;9.29;95.74;97919.84;5066569;28;20042;-62
2021/10/21 03:39:35;;;;;;;31.92;19.77;;;;;;;9.31;95.83;97917.19;5076706;28;20260;-61
2021/10/21 03:42:22;;;;;;;31.90;19.48;;;;;;;9.38;95.59;97928.91;5078368;28;20562;-61
2021/10/21 03:45:09;;;;;;;26.92;19.33;;;;;;;9.36;95.18;97917.78;5076289;28;20115;-60
2021/10/21 03:47:57;;;;;;;29.58;20.50;;;;;;;9.39;94.95;97937.50;5072038;28;20032;-61
2021/10/21 03:50:43;;;;;;;31.92;21.45;;;;;;;9.40;95.69;97937.41;5081225;28;20020;-60
2021/10/21 03:53:29;;;;;;;35.45;21.83;;;;;;;9.44;95.21;97920.88;5078694;28;20029;-61
2021/10/21 03:56:15;;;;;;;30.88;21.45;;;;;;;9.48;95.24;97909.50;5081473;28;20039;-61
2021/10/21 03:59:01;;;;;;;35.50;21.77;;;;;;;9.53;95.52;97911.03;5079777;28;20020;-62
2021/10/21 04:01:47;;;;;;;29.50;20.45;;;;;;;9.57;94.82;97920.31;5080153;28;20055;-60
2021/10/21 04:04:33;;;;;;;32.60;21.75;;;;;;;9.56;95.69;97918.63;5079316;28;20322;-61
2021/10/21 04:07:19;;;;;;;34.30;21.33;;;;;;;9.62;94.90;97929.53;5081608;28;20078;-63
2021/10/21 04:10:05;;;;;;;33.92;22.63;;;;;;;9.61;94.94;97924.44;5080727;28;20214;-62
2021/10/21 04:12:51;;;;;;;32.58;22.90;;;;;;;9.59;95.21;97915.91;5081527;28;20028;-62
2021/10/21 04:15:39;;;;;;;34.88;22.85;;;;;;;9.66;94.60;97899.19;5079941;28;20047;-61
2021/10/21 04:18:25;;;;;;;30.98;21.27;;;;;;;9.79;94.46;97917.56;5080660;28;20104;-63
2021/10/21 04:21:12;;;;;;;30.58;21.08;;;;;;;9.77;94.54;97909.06;5081316;28;20418;-61
2021/10/21 04:23:57;;;;;;;28.23;19.27;;;;;;;9.78;94.14;97887.47;5076753;28;20099;-61
2021/10/21 04:26:44;;;;;;;29.92;20.10;;;;;;;9.82;94.15;97879.50;5067988;28;20065;-59
2021/10/21 04:29:30;;;;;;;28.98;20.33;;;;;;;9.81;93.91;97864.88;5079232;28;20056;-60
2021/10/21 04:32:16;;;;;;;27.70;19.70;;;;;;;9.81;93.94;97874.41;5088582;28;20384;-60
2021/10/21 04:35:02;;;;;;;30.08;19.88;;;;;;;9.87;93.80;97870.69;5083569;28;20039;-61
2021/10/21 04:37:49;;;;;;;27.63;21.05;;;;;;;9.91;93.88;97885.13;5079948;28;20055;-61
2021/10/21 04:40:35;;;;;;;31.35;18.88;;;;;;;9.94;94.17;97867.72;5062630;28;20039;-63
2021/10/21 04:43:21;;;;;;;26.92;19.80;;;;;;;9.97;93.35;97866.72;5077234;28;20024;-62
2021/10/21 04:46:07;;;;;;;26.85;19.05;;;;;;;10.01;94.04;97876.03;5083068;28;20028;-62
2021/10/21 04:48:52;;;;;;;27.92;18.48;;;;;;;9.99;93.59;97870.91;5079822;28;20050;-62
2021/10/21 04:51:38;;;;;;;30.02;18.92;;;;;;;10.11;93.21;97871.25;5050757;28;20076;-63
2021/10/21 04:54:24;;;;;;;29.00;20.45;;;;;;;10.07;92.77;97875.72;5055883;28;20032;-62
2021/10/21 04:57:10;;;;;;;24.25;18.35;;;;;;;10.14;93.10;97878.84;5065852;28;20039;-62
2021/10/21 04:59:57;;;;;;;24.02;17.85;;;;;;;10.18;92.27;97872.59;5073587;28;20032;-61
2021/10/21 05:02:43;;;;;;;22.85;17.60;;;;;;;10.18;92.83;97865.66;5090978;28;20032;-62
2021/10/21 05:05:28;;;;;;;24.63;17.67;;;;;;;10.18;92.87;97852.75;5078510;28;20033;-63
2021/10/21 05:08:14;;;;;;;25.08;17.40;;;;;;;10.23;92.76;97844.75;5059295;28;20025;-62
2021/10/21 05:11:00;;;;;;;23.15;17.73;;;;;;;10.25;92.28;97830.00;5065648;28;20051;-63
2021/10/21 05:13:46;;;;;;;23.85;18.38;;;;;;;10.29;92.25;97844.44;5074109;28;20333;-60
2021/10/21 05:16:32;;;;;;;26.27;18.33;;;;;;;10.30;92.61;97837.53;5074771;28;20043;-63
2021/10/21 05:19:18;;;;;;;21.95;17.13;;;;;;;10.33;92.17;97839.94;5081676;28;22644;-63
2021/10/21 05:22:04;;;;;;;23.88;17.95;;;;;;;10.38;91.70;97850.13;5077401;28;20048;-62
2021/10/21 05:24:50;;;;;;;19.63;16.33;;;;;;;10.43;91.38;97830.00;5085747;28;20028;-63
2021/10/21 05:27:38;;;;;;;22.33;17.38;;;;;;;10.39;92.30;97828.47;5082048;28;20195;-63
2021/10/21 05:30:24;;;;;;;20.10;16.52;;;;;;;10.42;91.97;97828.31;5085909;28;20317;-63
2021/10/21 05:33:10;;;;;;;22.60;16.83;;;;;;;10.48;92.13;97828.03;5068521;28;20052;-63
2021/10/21 05:35:56;;;;;;;21.98;16.50;;;;;;;10.43;92.13;97842.94;5083010;28;20032;-63
2021/10/21 05:38:42;;;;;;;20.40;16.10;;;;;;;10.50;91.79;97871.03;5082681;28;20024;-62
2021/10/21 05:41:28;;;;;;;20.65;16.60;;;;;;;10.53;91.62;97859.66;5082042;28;20033;-63
2021/10/21 05:44:13;;;;;;;20.60;16.30;;;;;;;10.51;91.76;97870.09;5085060;28;20227;-63
2021/10/21 05:46:59;;;;;;;21.67;16.23;;;;;;;10.58;91.88;97885.34;5075544;28;20071;-62
2021/10/21 05:49:46;;;;;;;24.15;15.70;;;;;;;10.53;92.14;97895.91;5083108;28;20028;-62
2021/10/21 05:52:31;;;;;;;25.05;17.02;;;;;;;10.59;91.73;97879.22;5075158;28;20037;-61
2021/10/21 05:55:17;;;;;;;21.95;16.38;;;;;;;10.62;92.29;97886.88;5075138;28;20017;-63
2021/10/21 05:58:04;;;;;;;24.98;17.00;;;;;;;10.67;92.27;97898.66;5079170;28;20040;-63
2021/10/21 06:00:50;;;;;;;21.17;16.60;;;;;;;10.62;92.83;97897.22;5082590;28;20028;-64
2021/10/21 06:03:36;;;;;;;22.63;16.77;;;;;;;10.67;92.81;97890.03;5084077;28;20104;-63
2021/10/21 06:06:22;;;;;;;20.83;17.08;;;;;;;10.57;93.17;97888.84;5079760;28;20095;-62
2021/10/21 06:09:08;;;;;;;23.73;16.50;;;;;;;10.59;93.60;97899.94;5082427;28;20039;-62
2021/10/21 06:11:54;;;;;;;22.08;17.45;;;;;;;10.55;93.68;97888.09;5081366;28;20021;-62
2021/10/21 06:14:41;;;;;;;21.17;16.17;;;;;;;10.60;93.99;97865.38;5083297;28;20079;-63
2021/10/21 06:17:27;;;;;;;21.38;16.65;;;;;;;10.56;94.47;97875.06;5074145;28;20342;-62
2021/10/21 06:20:14;;;;;;;21.40;16.40;;;;;;;10.64;94.16;97853.97;5061840;28;20055;-60
2021/10/21 06:23:00;;;;;;;21.67;15.98;;;;;;;10.32;94.64;97812.41;5055934;28;20025;-60
2021/10/21 06:25:47;;;;;;;21.10;15.68;;;;;;;10.63;94.32;97860.91;5082682;28;20099;-60
2021/10/21 06:28:33;;;;;;;20.83;15.23;;;;;;;10.61;94.38;97846.34;5073255;28;20028;-60
2021/10/21 06:31:20;;;;;;;18.55;13.68;;;;;;;10.52;95.25;97848.50;5081785;28;20032;-60
2021/10/21 06:34:06;;;;;;;18.75;14.02;;;;;;;10.64;94.89;97853.97;5083037;28;20036;-61
2021/10/21 06:36:52;;;;;;;17.58;13.88;;;;;;;10.64;94.55;97843.59;5080802;28;20104;-61
2021/10/21 06:39:38;;;;;;;17.35;13.57;;;;;;;10.72;94.70;97833.69;5083063;28;20356;-62
2021/10/21 06:42:24;;;;;;;20.13;14.27;;;;;;;10.68;94.81;97850.28;5067550;28;20036;-61
2021/10/21 06:45:11;;;;;;;17.58;14.18;;;;;;;10.71;94.96;97853.53;5081990;28;20092;-61
2021/10/21 06:47:57;;;;;;;17.35;13.23;;;;;;;10.70;95.00;97851.91;5081032;28;20040;-61
2021/10/21 06:50:43;;;;;;;18.17;13.57;;;;;;;10.68;95.15;97866.66;5079758;28;20020;-61
2021/10/21 06:53:30;;;;;;;16.77;13.23;;;;;;;10.67;94.88;97862.41;5070398;28;20033;-60
2021/10/21 06:56:15;;;;;;;18.92;13.18;;;;;;;10.70;94.59;97832.91;5078410;28;20093;-60
2021/10/21 06:59:01;;;;;;;15.57;12.68;;;;;;;10.79;94.54;97848.00;5082783;28;20032;-62
2021/10/21 07:01:47;;;;;;;14.63;12.95;;;;;;;10.79;94.68;97840.22;5065179;28;20323;-61
2021/10/21 07:04:33;;;;;;;15.40;12.23;;;;;;;10.86;94.34;97840.75;5079829;28;20048;-61
2021/10/21 07:07:19;;;;;;;17.33;12.10;;;;;;;10.84;94.51;97835.63;5074566;28;20028;-60
2021/10/21 07:10:06;;;;;;;13.48;11.55;;;;;;;10.91;94.15;97820.59;5077739;28;20067;-61
2021/10/21 07:12:52;;;;;;;12.52;10.60;;;;;;;10.98;93.88;97818.53;5066145;28;20060;-61
2021/10/21 07:15:38;;;;;;;13.32;11.25;;;;;;;11.04;93.69;97818.19;5061516;28;20044;-61
2021/10/21 07:18:24;;;;;;;12.60;10.75;;;;;;;11.00;93.63;97804.59;5054194;28;20042;-61
2021/10/21 07:21:11;;;;;;;13.82;11.48;;;;;;;11.07;93.38;97849.09;5075240;28;20024;-61
2021/10/21 07:23:57;;;;;;;13.00;10.75;;;;;;;11.07;92.63;97851.69;5071142;28;20315;-62
2021/10/21 07:26:43;;;;;;;14.82;11.13;;;;;;;11.13;93.21;97860.91;5070110;28;20087;-61
2021/10/21 07:29:29;;;;;;;11.30;9.75;;;;;;;11.10;93.34;97864.50;5069996;28;20028;-60
2021/10/21 07:32:15;;;;;;;14.75;10.23;;;;;;;11.11;93.42;97876.53;5058373;28;20036;-61
2021/10/21 07:35:01;;;;;;;13.73;9.93;;;;;;;11.11;93.23;97871.34;5081662;28;20055;-61
2021/10/21 07:37:47;;;;;;;13.20;10.95;;;;;;;11.13;93.34;97860.91;5080644;28;20100;-61
2021/10/21 07:40:33;;;;;;;12.27;10.95;;;;;;;11.19;92.93;97876.97;5075578;28;20032;-63
2021/10/21 07:43:19;;;;;;;14.77;10.93;;;;;;;11.21;93.00;97895.84;5059176;28;20067;-62
2021/10/21 07:46:05;;;;;;;15.05;11.30;;;;;;;11.19;93.35;97895.09;5070736;28;20331;-61
2021/10/21 07:48:51;;;;;;;15.48;12.23;;;;;;;11.26;93.02;97877.47;5066168;28;20123;-62
2021/10/21 07:51:38;;;;;;;18.20;12.77;;;;;;;11.15;93.14;97882.41;5078787;28;20063;-60
2021/10/21 07:54:27;;;;;;;17.20;12.77;;;;;;;11.28;92.54;97890.34;5052642;28;20024;-61
2021/10/21 07:57:13;;;;;;;20.08;13.02;;;;;;;11.32;92.63;97889.28;5067085;28;20056;-62
2021/10/21 07:59:59;;;;;;;17.33;13.23;;;;;;;11.38;92.32;97905.31;5082113;28;20016;-62
2021/10/21 08:02:45;;;;;;;17.25;12.40;;;;;;;11.41;92.51;97906.91;5071066;28;20044;-61
2021/10/21 08:05:32;;;;;;;16.52;13.65;;;;;;;11.37;92.38;97900.22;5065141;28;20025;-62
2021/10/21 08:08:18;;;;;;;15.27;13.00;;;;;;;11.43;92.57;97879.16;5070678;28;20021;-61
2021/10/21 08:11:04;;;;;;;17.02;13.13;;;;;;;11.44;92.25;97864.44;5071754;28;20186;-62
2021/10/21 08:13:51;;;;;;;17.63;14.05;;;;;;;11.54;92.13;97861.28;5075920;28;20036;-61
2021/10/21 08:16:37;;;;;;;15.57;12.82;;;;;;;11.49;91.67;97849.47;5076132;28;20033;-62
2021/10/21 08:19:24;;;;;;;17.40;13.48;;;;;;;11.46;91.92;97847.88;5081413;28;20039;-62
2021/10/21 08:22:10;;;;;;;17.60;14.00;;;;;;;11.61;91.45;97855.75;5068078;28;20096;-63
2021/10/21 08:24:56;;;;;;;15.38;12.95;;;;;;;11.56;91.40;97856.81;5081420;28;20032;-63
2021/10/21 08:27:43;;;;;;;15.48;12.60;;;;;;;11.63;91.69;97859.06;5081127;28;20056;-63
2021/10/21 08:30:31;;;;;;;16.70;13.50;;;;;;;11.66;91.71;97864.94;5082273;28;20032;-62
2021/10/21 08:33:18;;;;;;;16.55;13.23;;;;;;;11.63;91.74;97862.50;5083070;28;20029;-62
2021/10/21 08:36:04;;;;;;;19.50;13.70;;;;;;;11.69;90.95;97867.34;5082023;28;20078;-62
2021/10/21 08:38:51;;;;;;;17.80;13.48;;;;;;;11.66;91.29;97864.94;5082593;28;20088;-60
2021/10/21 08:41:38;;;;;;;17.02;12.90;;;;;;;11.70;91.22;97855.22;5051989;28;20063;-61
2021/10/21 08:44:24;;;;;;;18.83;12.68;;;;;;;11.76;90.91;97862.66;5077716;28;20031;-62
2021/10/21 08:47:11;;;;;;;14.35;12.05;;;;;;;11.71;90.93;97864.66;5080559;28;20134;-61
2021/10/21 08:49:57;;;;;;;17.17;12.55;;;;;;;11.76;90.97;97860.06;5080767;28;20147;-60
2021/10/21 08:52:44;;;;;;;18.00;12.63;;;;;;;11.77;90.28;97855.72;5081991;28;20100;-62
2021/10/21 08:55:31;;;;;;;18.58;12.68;;;;;;;11.79;90.63;97846.94;5082072;28;20359;-62
2021/10/21 08:58:17;;;;;;;14.80;12.38;;;;;;;11.85;89.88;97850.94;5078321;28;20036;-62
2021/10/21 09:01:12;;;;;;;15.63;12.30;;;;;;;11.94;90.12;97845.25;5081128;28;20073;-62
2021/10/21 09:10:10;;;;;;;18.40;12.70;;;;;;;11.85;89.77;97879.47;5065898;28;20225;-62
2021/10/21 09:12:58;;;;;;;15.52;12.50;;;;;;;11.87;89.64;97895.78;5081980;28;20032;-61
2021/10/21 09:15:49;;;;;;;14.75;12.23;;;;;;;11.64;88.83;97840.84;5056067;28;20052;-62
2021/10/21 09:18:44;;;;;;;17.33;12.15;;;;;;;11.95;89.45;97895.38;5055024;28;20029;-62
2021/10/21 09:21:41;;;;;;;14.90;12.38;;;;;;;11.56;89.40;97817.94;5064530;28;20017;-61
2021/10/21 09:24:35;;;;;;;21.95;13.93;;;;;;;11.94;90.01;97893.72;5055135;28;20021;-62
2021/10/21 09:27:28;;;;;;;14.68;12.65;;;;;;;11.90;89.11;97899.03;5065571;28;20104;-60
2021/10/21 09:30:19;;;;;;;17.25;12.52;;;;;;;11.96;89.04;97910.88;5047436;28;20033;-62
2021/10/21 09:33:06;;;;;;;16.92;12.30;;;;;;;12.01;88.65;97906.25;5057979;28;20029;-61
2021/10/21 09:36:00;;;;;;;19.85;13.20;;;;;;;12.02;89.09;97913.09;5054052;28;20025;-64
2021/10/21 09:38:57;;;;;;;19.55;12.98;;;;;;;11.92;88.68;97883.38;5039193;28;20060;-62
2021/10/21 09:41:43;;;;;;;16.27;13.07;;;;;;;11.97;89.54;97883.16;5052035;28;20028;-62
2021/10/21 09:44:29;;;;;;;16.70;12.45;;;;;;;11.98;88.33;97885.66;5062385;28;20397;-62
2021/10/21 09:47:21;;;;;;;14.82;11.88;;;;;;;12.05;88.41;97901.72;5037962;28;20050;-62
2021/10/21 09:50:28;;;;;;;17.40;12.50;;;;;;;12.08;88.43;97893.75;5064035;28;20025;-61
2021/10/21 09:53:24;;;;;;;13.45;12.02;;;;;;;12.08;88.26;97897.22;5043715;28;20038;-62
2021/10/21 09:56:10;;;;;;;15.57;12.30;;;;;;;12.14;87.51;97906.41;5058323;28;20210;-63
2021/10/21 09:59:05;;;;;;;16.38;12.40;;;;;;;11.84;87.89;97844.06;5058427;28;20021;-62
2021/10/21 10:01:56;;;;;;;16.30;11.85;;;;;;;12.21;88.03;97886.97;5058005;28;20118;-61
2021/10/21 10:04:52;;;;;;;17.08;11.68;;;;;;;11.91;87.43;97851.44;5058102;28;20025;-62
2021/10/21 10:07:39;;;;;;;15.15;12.30;;;;;;;12.16;87.15;97883.78;5072697;28;20040;-64
2021/10/21 10:10:25;;;;;;;16.40;12.35;;;;;;;12.23;87.94;97907.63;5068490;28;20089;-62
2021/10/21 10:13:12;;;;;;;13.98;12.18;;;;;;;12.24;87.57;97910.16;5061168;28;20037;-61
2021/10/21 10:15:58;;;;;;;13.88;11.95;;;;;;;12.26;87.73;97910.88;5042437;28;20052;-62
2021/10/21 10:18:46;;;;;;;15.85;11.00;;;;;;;12.18;87.94;97901.88;5058432;28;20092;-61
2021/10/21 10:21:34;;;;;;;14.02;11.45;;;;;;;12.18;86.85;97892.31;5055397;28;20035;-63
2021/10/21 10:24:29;;;;;;;15.25;11.70;;;;;;;12.26;87.05;97894.50;5056531;28;20025;-61
2021/10/21 10:27:21;;;;;;;15.38;11.80;;;;;;;12.36;87.85;97907.78;5053523;28;20076;-62
2021/10/21 10:30:07;;;;;;;13.65;11.07;;;;;;;12.35;87.71;97903.50;5055669;28;20326;-62
2021/10/21 10:32:54;;;;;;;13.10;10.70;;;;;;;12.40;86.97;97891.09;5041037;28;20021;-62
2021/10/21 10:35:41;;;;;;;14.82;10.80;;;;;;;12.45;86.99;97909.00;5056027;28;20056;-61
2021/10/21 10:38:38;;;;;;;15.20;11.23;;;;;;;12.51;86.76;97887.84;5056739;28;20029;-63
2021/10/21 10:41:42;;;;;;;14.10;11.85;;;;;;;12.53;86.40;97892.03;5058612;28;20032;-61
2021/10/21 10:44:34;;;;;;;18.90;11.90;;;;;;;12.59;85.98;97894.28;5057936;28;20032;-62
2021/10/21 10:47:49;;;;;;;15.18;10.98;;;;;;;12.60;85.65;97901.16;5061608;28;20092;-62
2021/10/21 10:50:35;;;;;;;14.95;10.32;;;;;;;12.66;86.26;97888.75;5057901;28;20095;-63
2021/10/21 10:53:47;;;;;;;13.65;10.77;;;;;;;12.67;85.88;97895.56;5064741;28;20032;-61
2021/10/21 10:56:41;;;;;;;12.32;10.43;;;;;;;12.66;85.65;97905.16;5060306;28;20203;-61
2021/10/21 10:59:32;;;;;;;14.48;11.02;;;;;;;12.67;85.74;97899.03;5050708;28;20261;-63
2021/10/21 11:02:27;;;;;;;15.20;10.88;;;;;;;12.73;86.24;97916.84;5055642;28;20032;-62
2021/10/21 11:05:15;;;;;;;14.02;11.20;;;;;;;12.76;85.02;97897.66;5055958;28;20064;-63
2021/10/21 11:08:01;;;;;;;14.93;11.25;;;;;;;12.85;85.79;97897.09;5057597;28;20023;-63
2021/10/21 11:10:56;;;;;;;12.80;10.25;;;;;;;12.89;85.07;97889.97;5054086;28;20222;-63
2021/10/21 11:13:42;;;;;;;14.20;10.82;;;;;;;12.83;85.03;97882.53;5055548;28;20075;-63
2021/10/21 11:16:43;;;;;;;13.23;11.15;;;;;;;12.88;84.42;97894.31;5054353;28;20025;-62
2021/10/21 11:19:44;;;;;;;14.65;10.98;;;;;;;12.93;85.19;97910.47;5063062;28;20056;-62
2021/10/21 11:22:30;;;;;;;13.80;11.10;;;;;;;12.95;84.49;97915.56;5062437;28;20048;-63
2021/10/21 11:25:16;;;;;;;14.95;10.77;;;;;;;12.95;83.95;97916.41;5059671;28;20246;-63
2021/10/21 11:28:04;;;;;;;14.45;10.23;;;;;;;12.94;84.68;97904.34;5057465;28;20325;-63
2021/10/21 11:30:50;;;;;;;13.63;10.68;;;;;;;12.98;85.17;97891.16;5059032;28;20088;-63
2021/10/21 11:33:36;;;;;;;12.70;9.93;;;;;;;13.13;84.59;97911.03;5060033;28;20020;-62
2021/10/21 11:36:22;;;;;;;15.05;10.30;;;;;;;13.18;83.93;97909.00;5062585;28;20031;-63
2021/10/21 11:39:08;;;;;;;12.82;9.95;;;;;;;13.18;84.75;97913.34;5056998;28;20029;-63
2021/10/21 11:41:54;;;;;;;15.77;10.50;;;;;;;13.19;84.49;97913.25;5057808;28;20084;-62
2021/10/21 11:44:40;;;;;;;12.20;10.35;;;;;;;13.25;83.99;97930.22;5058657;28;20354;-63
2021/10/21 11:47:27;;;;;;;12.68;10.27;;;;;;;13.24;83.26;97928.56;5056322;28;20024;-63
2021/10/21 11:50:13;;;;;;;12.60;10.40;;;;;;;13.28;84.27;97924.84;5058009;28;20021;-62
2021/10/21 11:53:00;;;;;;;19.48;10.75;;;;;;;13.29;83.88;97931.72;5056603;28;20029;-62
2021/10/21 11:55:48;;;;;;;14.27;11.02;;;;;;;13.01;84.78;97885.78;5051982;28;20255;-62
2021/10/21 11:58:38;;;;;;;17.45;11.50;;;;;;;13.32;83.94;97935.91;5055855;28;20309;-64
2021/10/21 12:01:24;;;;;;;13.57;10.38;;;;;;;13.34;83.96;97928.84;5061245;28;20044;-63
2021/10/21 12:04:11;;;;;;;12.65;10.57;;;;;;;12.90;84.34;97886.44;5045492;28;20294;-61
2021/10/21 12:06:58;;;;;;;16.05;10.90;;;;;;;13.28;83.91;97925.69;5059198;28;20025;-62
2021/10/21 12:09:45;;;;;;;14.60;10.82;;;;;;;13.43;83.94;97939.53;5052252;28;20047;-62
2021/10/21 12:12:45;;;;;;;13.65;10.52;;;;;;;13.26;83.36;97905.91;5034088;28;20033;-62
2021/10/21 12:15:33;;;;;;;13.10;9.93;;;;;;;13.20;83.16;97888.09;5073863;28;20234;-63
2021/10/21 12:18:19;;;;;;;14.10;10.65;;;;;;;13.42;83.50;97931.84;5080039;28;20217;-63
2021/10/21 12:21:08;;;;;;;15.32;10.65;;;;;;;13.46;84.16;97939.34;5069984;28;20020;-63
2021/10/21 12:23:54;;;;;;;14.50;9.55;;;;;;;13.40;83.63;97933.72;5078916;28;20035;-63
2021/10/21 12:26:40;;;;;;;12.10;10.07;;;;;;;13.41;83.14;97938.81;5069207;28;20027;-63
2021/10/21 12:29:42;;;;;;;13.07;9.85;;;;;;;13.12;82.99;97878.16;5068531;28;20058;-62
2021/10/21 12:32:28;;;;;;;14.10;9.90;;;;;;;13.55;83.15;97939.72;5075093;28;20030;-64
2021/10/21 12:35:15;;;;;;;13.68;9.38;;;;;;;13.51;83.23;97928.69;5071528;28;20028;-63
2021/10/21 12:38:07;;;;;;;11.85;8.88;;;;;;;13.58;82.99;97929.97;5070143;28;20059;-63
2021/10/21 12:41:01;;;;;;;12.93;10.20;;;;;;;13.56;83.35;97931.81;5071541;28;20043;-62
2021/10/21 12:44:04;;;;;;;19.35;14.93;;;;;;;13.53;83.92;97928.59;5078176;28;20036;-62
2021/10/21 12:47:19;;;;;;;12.20;9.10;;;;;;;13.24;82.68;97885.22;5073527;28;20104;-62
2021/10/21 12:50:05;;;;;;;13.48;9.18;;;;;;;13.59;82.97;97929.03;5082788;28;20036;-61
2021/10/21 12:52:56;;;;;;;15.57;9.23;;;;;;;13.58;83.19;97935.16;5069590;28;20029;-62
2021/10/21 12:55:41;;;;;;;13.40;9.70;;;;;;;13.61;82.78;97936.72;5062808;28;20268;-62
2021/10/21 12:58:28;;;;;;;12.02;9.77;;;;;;;13.61;83.51;97931.53;5080151;28;20032;-62
2021/10/21 13:01:14;;;;;;;14.07;9.75;;;;;;;13.67;82.56;97922.50;5081434;28;20032;-63